Hardy, Mississippi
Current Conditions -  °F | °C
As of 6:35 AM on Sunday 23 Nov 2014 (Local Time) from KGNF Reporting Station
Haze Haze  
Wind Chill: 55°   Ceiling: 600
Heat Index: 55°   Visibility: 2mi
Dew Point: 55°   Wind: 6mph
Humidity: 100%   Direction: 110°ESE
Pressure: 29.77"   Gusts: NA
Location:  33.8096°N, 89.8042°W
Report Text: KGNF 231235Z AUTO 11005KT 2SM BR OVC006 13/13 A2977 RMK AO2
Loading
Personal Weather Stations






























Interactive Weather Map New forecast layout! Learn more

10-Day Weather Forecast

Advertisements
Track Severe Weather on mobile